sensor_id;sensor_type;location;lat;lon;timestamp;P1;durP1;ratioP1;P2;durP2;ratioP2
317;SDS011;146;53.448;10.228;2022-10-17T00:00:26;3.90;;;3.60;;
317;SDS011;146;53.448;10.228;2022-10-17T00:02:56;4.23;;;3.80;;
317;SDS011;146;53.448;10.228;2022-10-17T00:05:23;6.00;;;4.40;;
317;SDS011;146;53.448;10.228;2022-10-17T00:07:52;4.43;;;3.57;;
317;SDS011;146;53.448;10.228;2022-10-17T00:10:19;5.67;;;4.00;;
317;SDS011;146;53.448;10.228;2022-10-17T00:12:46;3.87;;;3.50;;
317;SDS011;146;53.448;10.228;2022-10-17T00:15:14;4.67;;;3.90;;
317;SDS011;146;53.448;10.228;2022-10-17T00:17:42;6.07;;;3.87;;
317;SDS011;146;53.448;10.228;2022-10-17T00:20:09;4.87;;;4.13;;
317;SDS011;146;53.448;10.228;2022-10-17T00:22:37;3.87;;;3.67;;
317;SDS011;146;53.448;10.228;2022-10-17T00:25:05;4.57;;;4.17;;
317;SDS011;146;53.448;10.228;2022-10-17T00:27:33;4.20;;;3.90;;
317;SDS011;146;53.448;10.228;2022-10-17T00:30:00;5.60;;;4.37;;
317;SDS011;146;53.448;10.228;2022-10-17T00:32:27;5.20;;;4.47;;
317;SDS011;146;53.448;10.228;2022-10-17T00:34:53;6.93;;;4.47;;
317;SDS011;146;53.448;10.228;2022-10-17T00:37:20;4.70;;;4.30;;
317;SDS011;146;53.448;10.228;2022-10-17T00:39:47;4.33;;;3.87;;
317;SDS011;146;53.448;10.228;2022-10-17T00:42:15;5.83;;;4.20;;
317;SDS011;146;53.448;10.228;2022-10-17T00:44:56;3.90;;;3.53;;
317;SDS011;146;53.448;10.228;2022-10-17T00:47:32;4.47;;;4.13;;
317;SDS011;146;53.448;10.228;2022-10-17T00:50:02;4.57;;;4.27;;
317;SDS011;146;53.448;10.228;2022-10-17T00:52:30;4.30;;;4.00;;
317;SDS011;146;53.448;10.228;2022-10-17T00:54:58;5.73;;;5.20;;
317;SDS011;146;53.448;10.228;2022-10-17T00:57:28;5.07;;;4.63;;
317;SDS011;146;53.448;10.228;2022-10-17T00:59:56;5.00;;;4.70;;
317;SDS011;146;53.448;10.228;2022-10-17T01:02:25;5.07;;;4.67;;
317;SDS011;146;53.448;10.228;2022-10-17T01:04:52;4.23;;;3.93;;
317;SDS011;146;53.448;10.228;2022-10-17T01:07:23;4.67;;;4.23;;
317;SDS011;146;53.448;10.228;2022-10-17T01:09:51;4.93;;;4.57;;
317;SDS011;146;53.448;10.228;2022-10-17T01:12:19;5.77;;;5.47;;
317;SDS011;146;53.448;10.228;2022-10-17T01:14:57;5.07;;;4.70;;
317;SDS011;146;53.448;10.228;2022-10-17T01:17:32;5.27;;;4.97;;
317;SDS011;146;53.448;10.228;2022-10-17T01:20:13;5.10;;;4.70;;
317;SDS011;146;53.448;10.228;2022-10-17T01:22:58;5.23;;;4.93;;
317;SDS011;146;53.448;10.228;2022-10-17T01:25:45;5.53;;;5.17;;
317;SDS011;146;53.448;10.228;2022-10-17T01:28:23;6.20;;;5.83;;
317;SDS011;146;53.448;10.228;2022-10-17T01:31:07;6.30;;;5.80;;
317;SDS011;146;53.448;10.228;2022-10-17T01:33:42;6.20;;;4.80;;
317;SDS011;146;53.448;10.228;2022-10-17T01:36:15;5.07;;;4.73;;
317;SDS011;146;53.448;10.228;2022-10-17T01:38:52;7.10;;;5.00;;
317;SDS011;146;53.448;10.228;2022-10-17T01:41:28;5.80;;;5.40;;
317;SDS011;146;53.448;10.228;2022-10-17T01:44:04;5.37;;;4.97;;
317;SDS011;146;53.448;10.228;2022-10-17T01:46:38;4.83;;;4.53;;
317;SDS011;146;53.448;10.228;2022-10-17T01:49:09;7.20;;;5.00;;
317;SDS011;146;53.448;10.228;2022-10-17T01:51:39;5.50;;;5.10;;
317;SDS011;146;53.448;10.228;2022-10-17T01:54:10;5.30;;;4.90;;
317;SDS011;146;53.448;10.228;2022-10-17T01:56:41;8.13;;;5.77;;
317;SDS011;146;53.448;10.228;2022-10-17T01:59:11;5.50;;;5.20;;
317;SDS011;146;53.448;10.228;2022-10-17T02:01:43;5.90;;;4.83;;
317;SDS011;146;53.448;10.228;2022-10-17T02:04:11;5.10;;;4.70;;
317;SDS011;146;53.448;10.228;2022-10-17T02:06:38;5.30;;;4.90;;
317;SDS011;146;53.448;10.228;2022-10-17T02:11:57;5.20;;;4.80;;
317;SDS011;146;53.448;10.228;2022-10-17T02:14:40;5.37;;;4.97;;
317;SDS011;146;53.448;10.228;2022-10-17T02:17:18;4.87;;;4.47;;
317;SDS011;146;53.448;10.228;2022-10-17T02:20:00;4.80;;;4.40;;
317;SDS011;146;53.448;10.228;2022-10-17T02:22:36;4.63;;;4.33;;
317;SDS011;146;53.448;10.228;2022-10-17T02:25:09;4.80;;;4.50;;
317;SDS011;146;53.448;10.228;2022-10-17T02:27:41;4.90;;;4.40;;
317;SDS011;146;53.448;10.228;2022-10-17T02:30:14;4.03;;;3.83;;
317;SDS011;146;53.448;10.228;2022-10-17T02:32:51;5.10;;;4.77;;
317;SDS011;146;53.448;10.228;2022-10-17T02:35:23;4.40;;;4.10;;
317;SDS011;146;53.448;10.228;2022-10-17T02:37:52;4.37;;;4.00;;
317;SDS011;146;53.448;10.228;2022-10-17T02:40:21;4.80;;;4.40;;
317;SDS011;146;53.448;10.228;2022-10-17T02:42:50;4.07;;;3.80;;
317;SDS011;146;53.448;10.228;2022-10-17T02:45:18;4.20;;;3.90;;
317;SDS011;146;53.448;10.228;2022-10-17T02:47:52;3.73;;;3.50;;
317;SDS011;146;53.448;10.228;2022-10-17T02:50:26;7.40;;;3.93;;
317;SDS011;146;53.448;10.228;2022-10-17T02:53:03;4.37;;;4.10;;
317;SDS011;146;53.448;10.228;2022-10-17T02:55:35;4.90;;;4.53;;
317;SDS011;146;53.448;10.228;2022-10-17T02:58:09;4.70;;;4.30;;
317;SDS011;146;53.448;10.228;2022-10-17T03:00:39;4.70;;;4.23;;
317;SDS011;146;53.448;10.228;2022-10-17T03:03:18;4.33;;;3.93;;
317;SDS011;146;53.448;10.228;2022-10-17T03:05:46;4.63;;;4.33;;
317;SDS011;146;53.448;10.228;2022-10-17T03:08:13;5.63;;;4.50;;
317;SDS011;146;53.448;10.228;2022-10-17T03:10:40;4.50;;;4.17;;
317;SDS011;146;53.448;10.228;2022-10-17T03:13:07;5.87;;;5.37;;
317;SDS011;146;53.448;10.228;2022-10-17T03:15:33;4.73;;;3.80;;
317;SDS011;146;53.448;10.228;2022-10-17T03:18:00;4.20;;;3.90;;
317;SDS011;146;53.448;10.228;2022-10-17T03:20:28;4.17;;;3.93;;
317;SDS011;146;53.448;10.228;2022-10-17T03:22:55;3.70;;;3.50;;
317;SDS011;146;53.448;10.228;2022-10-17T03:25:22;3.97;;;3.70;;
317;SDS011;146;53.448;10.228;2022-10-17T03:27:49;4.30;;;4.10;;
317;SDS011;146;53.448;10.228;2022-10-17T03:30:16;4.10;;;3.80;;
317;SDS011;146;53.448;10.228;2022-10-17T03:32:44;4.40;;;4.10;;
317;SDS011;146;53.448;10.228;2022-10-17T03:35:11;4.50;;;4.20;;
317;SDS011;146;53.448;10.228;2022-10-17T03:37:39;3.93;;;3.63;;
317;SDS011;146;53.448;10.228;2022-10-17T03:40:06;3.90;;;3.70;;
317;SDS011;146;53.448;10.228;2022-10-17T03:42:33;4.40;;;4.10;;
317;SDS011;146;53.448;10.228;2022-10-17T03:44:59;4.27;;;4.00;;
317;SDS011;146;53.448;10.228;2022-10-17T03:47:26;4.10;;;3.80;;
317;SDS011;146;53.448;10.228;2022-10-17T03:49:53;3.93;;;3.40;;
317;SDS011;146;53.448;10.228;2022-10-17T03:52:20;3.87;;;3.67;;
317;SDS011;146;53.448;10.228;2022-10-17T03:54:49;3.93;;;3.63;;
317;SDS011;146;53.448;10.228;2022-10-17T03:57:16;3.60;;;3.40;;
317;SDS011;146;53.448;10.228;2022-10-17T03:59:43;3.67;;;3.33;;
317;SDS011;146;53.448;10.228;2022-10-17T04:02:10;3.53;;;3.33;;
317;SDS011;146;53.448;10.228;2022-10-17T04:04:36;4.30;;;4.00;;
317;SDS011;146;53.448;10.228;2022-10-17T04:07:03;4.30;;;2.80;;
317;SDS011;146;53.448;10.228;2022-10-17T04:09:30;4.77;;;4.37;;
317;SDS011;146;53.448;10.228;2022-10-17T04:11:58;3.97;;;3.23;;
317;SDS011;146;53.448;10.228;2022-10-17T04:14:25;3.90;;;3.60;;
317;SDS011;146;53.448;10.228;2022-10-17T04:16:51;3.70;;;3.50;;
317;SDS011;146;53.448;10.228;2022-10-17T04:19:18;3.93;;;3.63;;
317;SDS011;146;53.448;10.228;2022-10-17T04:21:45;4.20;;;3.80;;
317;SDS011;146;53.448;10.228;2022-10-17T04:24:12;4.00;;;3.60;;
317;SDS011;146;53.448;10.228;2022-10-17T04:26:39;4.50;;;4.10;;
317;SDS011;146;53.448;10.228;2022-10-17T04:29:07;5.30;;;4.17;;
317;SDS011;146;53.448;10.228;2022-10-17T04:31:33;3.90;;;3.70;;
317;SDS011;146;53.448;10.228;2022-10-17T04:34:00;4.07;;;3.80;;
317;SDS011;146;53.448;10.228;2022-10-17T04:36:27;3.77;;;3.47;;
317;SDS011;146;53.448;10.228;2022-10-17T04:38:53;3.67;;;3.47;;
317;SDS011;146;53.448;10.228;2022-10-17T04:41:20;3.30;;;3.00;;
317;SDS011;146;53.448;10.228;2022-10-17T04:43:47;4.30;;;4.00;;
317;SDS011;146;53.448;10.228;2022-10-17T04:46:15;4.70;;;3.87;;
317;SDS011;146;53.448;10.228;2022-10-17T04:48:42;3.83;;;3.53;;
317;SDS011;146;53.448;10.228;2022-10-17T04:51:09;3.60;;;3.40;;
317;SDS011;146;53.448;10.228;2022-10-17T04:53:38;4.43;;;3.53;;
317;SDS011;146;53.448;10.228;2022-10-17T04:56:09;3.27;;;3.07;;
317;SDS011;146;53.448;10.228;2022-10-17T04:58:37;3.40;;;3.10;;
317;SDS011;146;53.448;10.228;2022-10-17T05:01:05;3.50;;;3.30;;
317;SDS011;146;53.448;10.228;2022-10-17T05:03:33;3.40;;;3.20;;
317;SDS011;146;53.448;10.228;2022-10-17T05:06:04;3.60;;;3.40;;
317;SDS011;146;53.448;10.228;2022-10-17T05:08:32;3.60;;;3.23;;
317;SDS011;146;53.448;10.228;2022-10-17T05:10:59;4.23;;;4.00;;
317;SDS011;146;53.448;10.228;2022-10-17T05:13:26;4.80;;;3.80;;
317;SDS011;146;53.448;10.228;2022-10-17T05:15:53;3.90;;;3.33;;
317;SDS011;146;53.448;10.228;2022-10-17T05:18:22;6.87;;;6.23;;
317;SDS011;146;53.448;10.228;2022-10-17T05:20:51;3.80;;;3.50;;
317;SDS011;146;53.448;10.228;2022-10-17T05:23:17;3.37;;;3.17;;
317;SDS011;146;53.448;10.228;2022-10-17T05:25:44;3.63;;;3.37;;
317;SDS011;146;53.448;10.228;2022-10-17T05:28:11;4.37;;;3.90;;
317;SDS011;146;53.448;10.228;2022-10-17T05:30:37;3.90;;;3.63;;
317;SDS011;146;53.448;10.228;2022-10-17T05:33:04;4.07;;;3.87;;
317;SDS011;146;53.448;10.228;2022-10-17T05:35:31;4.43;;;4.13;;
317;SDS011;146;53.448;10.228;2022-10-17T05:37:59;3.87;;;3.57;;
317;SDS011;146;53.448;10.228;2022-10-17T05:40:25;5.43;;;3.93;;
317;SDS011;146;53.448;10.228;2022-10-17T05:42:52;4.27;;;3.97;;
317;SDS011;146;53.448;10.228;2022-10-17T05:45:19;4.73;;;3.80;;
317;SDS011;146;53.448;10.228;2022-10-17T05:47:45;4.33;;;3.67;;
317;SDS011;146;53.448;10.228;2022-10-17T05:50:12;4.50;;;4.20;;
317;SDS011;146;53.448;10.228;2022-10-17T05:52:39;4.20;;;3.90;;
317;SDS011;146;53.448;10.228;2022-10-17T05:55:08;4.63;;;4.23;;
317;SDS011;146;53.448;10.228;2022-10-17T05:57:35;4.70;;;4.30;;
317;SDS011;146;53.448;10.228;2022-10-17T06:00:02;3.70;;;3.40;;
317;SDS011;146;53.448;10.228;2022-10-17T06:02:30;4.30;;;4.00;;
317;SDS011;146;53.448;10.228;2022-10-17T06:04:56;3.90;;;3.60;;
317;SDS011;146;53.448;10.228;2022-10-17T06:07:23;4.13;;;3.83;;
317;SDS011;146;53.448;10.228;2022-10-17T06:09:50;4.53;;;4.20;;
317;SDS011;146;53.448;10.228;2022-10-17T06:12:18;4.50;;;4.20;;
317;SDS011;146;53.448;10.228;2022-10-17T06:14:45;4.47;;;4.17;;
317;SDS011;146;53.448;10.228;2022-10-17T06:17:11;4.77;;;4.33;;
317;SDS011;146;53.448;10.228;2022-10-17T06:19:38;4.70;;;4.30;;
317;SDS011;146;53.448;10.228;2022-10-17T06:22:05;3.83;;;3.53;;
317;SDS011;146;53.448;10.228;2022-10-17T06:24:32;4.93;;;4.30;;
317;SDS011;146;53.448;10.228;2022-10-17T06:26:59;4.97;;;4.17;;
317;SDS011;146;53.448;10.228;2022-10-17T06:29:27;4.17;;;3.77;;
317;SDS011;146;53.448;10.228;2022-10-17T06:31:54;4.57;;;4.20;;
317;SDS011;146;53.448;10.228;2022-10-17T06:34:20;3.87;;;3.57;;
317;SDS011;146;53.448;10.228;2022-10-17T06:36:47;4.53;;;4.20;;
317;SDS011;146;53.448;10.228;2022-10-17T06:39:14;4.93;;;4.53;;
317;SDS011;146;53.448;10.228;2022-10-17T06:41:41;4.33;;;3.93;;
317;SDS011;146;53.448;10.228;2022-10-17T06:44:08;4.47;;;4.07;;
317;SDS011;146;53.448;10.228;2022-10-17T06:46:37;4.17;;;3.60;;
317;SDS011;146;53.448;10.228;2022-10-17T06:49:04;4.37;;;3.97;;
317;SDS011;146;53.448;10.228;2022-10-17T06:51:33;4.40;;;4.00;;
317;SDS011;146;53.448;10.228;2022-10-17T06:54:01;4.13;;;3.83;;
317;SDS011;146;53.448;10.228;2022-10-17T06:56:28;4.60;;;4.20;;
317;SDS011;146;53.448;10.228;2022-10-17T06:58:55;4.40;;;4.10;;
317;SDS011;146;53.448;10.228;2022-10-17T07:01:22;4.60;;;4.30;;
317;SDS011;146;53.448;10.228;2022-10-17T07:03:50;4.30;;;4.00;;
317;SDS011;146;53.448;10.228;2022-10-17T07:06:17;4.20;;;3.90;;
317;SDS011;146;53.448;10.228;2022-10-17T07:08:44;4.30;;;4.00;;
317;SDS011;146;53.448;10.228;2022-10-17T07:11:11;5.40;;;4.90;;
317;SDS011;146;53.448;10.228;2022-10-17T07:13:39;4.23;;;3.70;;
317;SDS011;146;53.448;10.228;2022-10-17T07:16:07;4.80;;;4.50;;
317;SDS011;146;53.448;10.228;2022-10-17T07:18:34;4.87;;;4.47;;
317;SDS011;146;53.448;10.228;2022-10-17T07:21:02;4.80;;;3.90;;
317;SDS011;146;53.448;10.228;2022-10-17T07:23:29;4.40;;;4.00;;
317;SDS011;146;53.448;10.228;2022-10-17T07:25:58;4.20;;;3.90;;
317;SDS011;146;53.448;10.228;2022-10-17T07:28:26;4.07;;;3.77;;
317;SDS011;146;53.448;10.228;2022-10-17T07:30:53;4.97;;;4.03;;
317;SDS011;146;53.448;10.228;2022-10-17T07:33:20;4.43;;;4.13;;
317;SDS011;146;53.448;10.228;2022-10-17T07:35:47;6.53;;;5.20;;
317;SDS011;146;53.448;10.228;2022-10-17T07:38:15;3.97;;;3.63;;
317;SDS011;146;53.448;10.228;2022-10-17T07:40:42;4.70;;;4.30;;
317;SDS011;146;53.448;10.228;2022-10-17T07:43:08;4.43;;;4.13;;
317;SDS011;146;53.448;10.228;2022-10-17T07:45:35;4.50;;;4.20;;
317;SDS011;146;53.448;10.228;2022-10-17T07:48:02;4.33;;;4.03;;
317;SDS011;146;53.448;10.228;2022-10-17T07:50:29;4.53;;;4.13;;
317;SDS011;146;53.448;10.228;2022-10-17T07:52:57;4.77;;;4.27;;
317;SDS011;146;53.448;10.228;2022-10-17T07:55:25;5.30;;;4.90;;
317;SDS011;146;53.448;10.228;2022-10-17T07:57:51;5.00;;;4.63;;
317;SDS011;146;53.448;10.228;2022-10-17T08:00:18;4.60;;;4.30;;
317;SDS011;146;53.448;10.228;2022-10-17T08:02:45;4.97;;;4.60;;
317;SDS011;146;53.448;10.228;2022-10-17T08:05:12;4.70;;;4.40;;
317;SDS011;146;53.448;10.228;2022-10-17T08:07:39;4.83;;;4.30;;
317;SDS011;146;53.448;10.228;2022-10-17T08:10:06;5.10;;;4.60;;
317;SDS011;146;53.448;10.228;2022-10-17T08:12:34;4.83;;;4.53;;
317;SDS011;146;53.448;10.228;2022-10-17T08:15:01;4.80;;;4.50;;
317;SDS011;146;53.448;10.228;2022-10-17T08:17:29;4.90;;;4.60;;
317;SDS011;146;53.448;10.228;2022-10-17T08:19:55;5.30;;;4.30;;
317;SDS011;146;53.448;10.228;2022-10-17T08:22:22;4.43;;;3.87;;
317;SDS011;146;53.448;10.228;2022-10-17T08:24:49;4.43;;;4.10;;
317;SDS011;146;53.448;10.228;2022-10-17T08:27:16;4.40;;;4.10;;
317;SDS011;146;53.448;10.228;2022-10-17T08:29:49;4.43;;;3.87;;
317;SDS011;146;53.448;10.228;2022-10-17T08:32:17;3.87;;;3.50;;
317;SDS011;146;53.448;10.228;2022-10-17T08:34:45;5.10;;;4.50;;
317;SDS011;146;53.448;10.228;2022-10-17T08:37:12;4.53;;;4.10;;
317;SDS011;146;53.448;10.228;2022-10-17T08:39:39;4.00;;;3.70;;
317;SDS011;146;53.448;10.228;2022-10-17T08:42:13;7.17;;;4.83;;
317;SDS011;146;53.448;10.228;2022-10-17T08:45:02;4.67;;;4.27;;
317;SDS011;146;53.448;10.228;2022-10-17T08:47:36;4.37;;;4.07;;
317;SDS011;146;53.448;10.228;2022-10-17T08:50:06;5.70;;;4.87;;
317;SDS011;146;53.448;10.228;2022-10-17T08:52:40;4.10;;;3.80;;
317;SDS011;146;53.448;10.228;2022-10-17T08:55:12;3.97;;;3.67;;
317;SDS011;146;53.448;10.228;2022-10-17T08:57:40;4.50;;;3.73;;
317;SDS011;146;53.448;10.228;2022-10-17T09:02:46;4.37;;;4.00;;
317;SDS011;146;53.448;10.228;2022-10-17T09:05:25;4.73;;;4.33;;
317;SDS011;146;53.448;10.228;2022-10-17T09:08:01;7.40;;;4.40;;
317;SDS011;146;53.448;10.228;2022-10-17T09:10:37;4.60;;;3.60;;
317;SDS011;146;53.448;10.228;2022-10-17T09:13:18;3.20;;;3.00;;
317;SDS011;146;53.448;10.228;2022-10-17T09:15:56;2.90;;;2.80;;
317;SDS011;146;53.448;10.228;2022-10-17T09:18:32;3.70;;;3.40;;
317;SDS011;146;53.448;10.228;2022-10-17T09:21:04;3.50;;;3.20;;
317;SDS011;146;53.448;10.228;2022-10-17T09:23:41;3.20;;;3.00;;
317;SDS011;146;53.448;10.228;2022-10-17T09:26:12;3.43;;;3.23;;
317;SDS011;146;53.448;10.228;2022-10-17T09:28:40;2.70;;;2.50;;
317;SDS011;146;53.448;10.228;2022-10-17T09:31:11;5.83;;;3.13;;
317;SDS011;146;53.448;10.228;2022-10-17T09:33:44;4.10;;;3.57;;
317;SDS011;146;53.448;10.228;2022-10-17T09:36:21;9.97;;;3.80;;
317;SDS011;146;53.448;10.228;2022-10-17T09:38:51;3.13;;;2.93;;
317;SDS011;146;53.448;10.228;2022-10-17T09:41:20;4.27;;;3.30;;
317;SDS011;146;53.448;10.228;2022-10-17T09:43:50;3.20;;;2.90;;
317;SDS011;146;53.448;10.228;2022-10-17T09:46:23;3.50;;;3.20;;
317;SDS011;146;53.448;10.228;2022-10-17T09:48:52;3.70;;;3.40;;
317;SDS011;146;53.448;10.228;2022-10-17T09:51:22;3.27;;;3.03;;
317;SDS011;146;53.448;10.228;2022-10-17T09:53:50;3.13;;;2.93;;
317;SDS011;146;53.448;10.228;2022-10-17T09:56:20;3.40;;;3.10;;
317;SDS011;146;53.448;10.228;2022-10-17T09:58:47;3.37;;;2.80;;
317;SDS011;146;53.448;10.228;2022-10-17T10:01:18;3.10;;;2.90;;
317;SDS011;146;53.448;10.228;2022-10-17T10:06:34;3.37;;;3.17;;
317;SDS011;146;53.448;10.228;2022-10-17T10:09:02;5.20;;;3.00;;
317;SDS011;146;53.448;10.228;2022-10-17T10:11:45;3.67;;;3.37;;
317;SDS011;146;53.448;10.228;2022-10-17T10:14:18;3.57;;;3.27;;
317;SDS011;146;53.448;10.228;2022-10-17T10:16:59;3.30;;;3.00;;
317;SDS011;146;53.448;10.228;2022-10-17T10:19:32;3.17;;;2.97;;
317;SDS011;146;53.448;10.228;2022-10-17T10:22:01;3.20;;;3.00;;
317;SDS011;146;53.448;10.228;2022-10-17T10:24:29;3.47;;;3.23;;
317;SDS011;146;53.448;10.228;2022-10-17T10:26:57;4.20;;;3.80;;
317;SDS011;146;53.448;10.228;2022-10-17T10:29:26;3.77;;;3.43;;
317;SDS011;146;53.448;10.228;2022-10-17T10:31:55;3.97;;;3.60;;
317;SDS011;146;53.448;10.228;2022-10-17T10:34:27;3.47;;;3.17;;
317;SDS011;146;53.448;10.228;2022-10-17T10:36:58;3.40;;;3.20;;
317;SDS011;146;53.448;10.228;2022-10-17T10:39:39;3.93;;;2.97;;
317;SDS011;146;53.448;10.228;2022-10-17T10:42:16;3.30;;;3.10;;
317;SDS011;146;53.448;10.228;2022-10-17T10:44:47;3.30;;;3.10;;
317;SDS011;146;53.448;10.228;2022-10-17T10:47:17;3.60;;;3.40;;
317;SDS011;146;53.448;10.228;2022-10-17T10:49:47;4.07;;;3.23;;
317;SDS011;146;53.448;10.228;2022-10-17T10:52:19;3.33;;;3.13;;
317;SDS011;146;53.448;10.228;2022-10-17T10:54:58;3.87;;;3.57;;
317;SDS011;146;53.448;10.228;2022-10-17T10:57:39;3.00;;;2.80;;
317;SDS011;146;53.448;10.228;2022-10-17T11:00:11;7.17;;;4.37;;
317;SDS011;146;53.448;10.228;2022-10-17T11:02:42;3.53;;;3.33;;
317;SDS011;146;53.448;10.228;2022-10-17T11:05:19;3.90;;;3.50;;
317;SDS011;146;53.448;10.228;2022-10-17T11:07:51;4.23;;;3.57;;
317;SDS011;146;53.448;10.228;2022-10-17T11:10:24;3.83;;;3.53;;
317;SDS011;146;53.448;10.228;2022-10-17T11:12:57;4.23;;;3.60;;
317;SDS011;146;53.448;10.228;2022-10-17T11:15:29;4.87;;;4.47;;
317;SDS011;146;53.448;10.228;2022-10-17T11:18:02;3.47;;;3.27;;
317;SDS011;146;53.448;10.228;2022-10-17T11:20:33;5.33;;;4.83;;
317;SDS011;146;53.448;10.228;2022-10-17T11:23:13;4.10;;;3.80;;
317;SDS011;146;53.448;10.228;2022-10-17T11:25:44;4.03;;;3.67;;
317;SDS011;146;53.448;10.228;2022-10-17T11:28:13;3.60;;;3.30;;
317;SDS011;146;53.448;10.228;2022-10-17T11:30:43;3.40;;;3.10;;
317;SDS011;146;53.448;10.228;2022-10-17T11:33:14;3.40;;;3.20;;
317;SDS011;146;53.448;10.228;2022-10-17T11:35:48;3.80;;;3.50;;
317;SDS011;146;53.448;10.228;2022-10-17T11:38:20;3.50;;;3.20;;
317;SDS011;146;53.448;10.228;2022-10-17T11:40:56;6.33;;;3.10;;
317;SDS011;146;53.448;10.228;2022-10-17T11:43:25;3.60;;;3.40;;
317;SDS011;146;53.448;10.228;2022-10-17T11:45:55;3.43;;;3.10;;
317;SDS011;146;53.448;10.228;2022-10-17T11:48:28;4.23;;;3.93;;
317;SDS011;146;53.448;10.228;2022-10-17T11:51:03;3.50;;;3.30;;
317;SDS011;146;53.448;10.228;2022-10-17T11:53:40;4.23;;;3.83;;
317;SDS011;146;53.448;10.228;2022-10-17T11:56:11;4.13;;;3.70;;
317;SDS011;146;53.448;10.228;2022-10-17T11:58:42;3.10;;;2.90;;
317;SDS011;146;53.448;10.228;2022-10-17T12:01:15;3.63;;;3.37;;
317;SDS011;146;53.448;10.228;2022-10-17T12:03:51;3.67;;;3.37;;
317;SDS011;146;53.448;10.228;2022-10-17T12:06:36;4.33;;;3.30;;
317;SDS011;146;53.448;10.228;2022-10-17T12:09:10;3.73;;;3.40;;
317;SDS011;146;53.448;10.228;2022-10-17T12:11:46;4.00;;;3.70;;
317;SDS011;146;53.448;10.228;2022-10-17T12:14:34;3.57;;;3.37;;
317;SDS011;146;53.448;10.228;2022-10-17T12:17:02;4.43;;;4.00;;
317;SDS011;146;53.448;10.228;2022-10-17T12:19:32;4.20;;;3.43;;
317;SDS011;146;53.448;10.228;2022-10-17T12:22:17;4.30;;;3.90;;
317;SDS011;146;53.448;10.228;2022-10-17T12:24:56;3.93;;;3.63;;
317;SDS011;146;53.448;10.228;2022-10-17T12:27:32;3.50;;;3.20;;
317;SDS011;146;53.448;10.228;2022-10-17T12:30:02;4.77;;;4.37;;
317;SDS011;146;53.448;10.228;2022-10-17T12:32:32;3.70;;;3.50;;
317;SDS011;146;53.448;10.228;2022-10-17T12:34:59;3.97;;;3.63;;
317;SDS011;146;53.448;10.228;2022-10-17T12:40:56;4.10;;;3.80;;
317;SDS011;146;53.448;10.228;2022-10-17T12:56:35;3.97;;;3.67;;
317;SDS011;146;53.448;10.228;2022-10-17T12:59:07;3.60;;;3.30;;
317;SDS011;146;53.448;10.228;2022-10-17T13:01:38;4.17;;;3.80;;
317;SDS011;146;53.448;10.228;2022-10-17T13:04:08;4.43;;;4.03;;
317;SDS011;146;53.448;10.228;2022-10-17T13:06:37;4.80;;;3.83;;
317;SDS011;146;53.448;10.228;2022-10-17T13:09:14;4.00;;;3.67;;
317;SDS011;146;53.448;10.228;2022-10-17T13:11:49;4.10;;;3.80;;
317;SDS011;146;53.448;10.228;2022-10-17T13:14:19;4.07;;;3.77;;
317;SDS011;146;53.448;10.228;2022-10-17T13:16:51;3.80;;;3.50;;
317;SDS011;146;53.448;10.228;2022-10-17T13:19:20;4.90;;;4.50;;
317;SDS011;146;53.448;10.228;2022-10-17T13:21:48;4.43;;;4.13;;
317;SDS011;146;53.448;10.228;2022-10-17T13:24:19;5.40;;;4.90;;
317;SDS011;146;53.448;10.228;2022-10-17T13:26:49;5.77;;;4.47;;
317;SDS011;146;53.448;10.228;2022-10-17T13:29:15;4.90;;;4.60;;
317;SDS011;146;53.448;10.228;2022-10-17T13:31:44;5.37;;;4.87;;
317;SDS011;146;53.448;10.228;2022-10-17T13:34:17;4.97;;;4.57;;
317;SDS011;146;53.448;10.228;2022-10-17T13:36:46;4.73;;;4.40;;
317;SDS011;146;53.448;10.228;2022-10-17T13:39:14;5.53;;;5.13;;
317;SDS011;146;53.448;10.228;2022-10-17T13:41:43;6.10;;;5.47;;
317;SDS011;146;53.448;10.228;2022-10-17T13:44:12;5.10;;;4.67;;
317;SDS011;146;53.448;10.228;2022-10-17T13:46:42;5.67;;;5.20;;
317;SDS011;146;53.448;10.228;2022-10-17T13:49:10;5.73;;;5.23;;
317;SDS011;146;53.448;10.228;2022-10-17T13:51:43;5.70;;;5.30;;
317;SDS011;146;53.448;10.228;2022-10-17T13:54:24;6.07;;;5.57;;
317;SDS011;146;53.448;10.228;2022-10-17T13:57:00;6.20;;;5.03;;
317;SDS011;146;53.448;10.228;2022-10-17T13:59:30;6.30;;;5.80;;
317;SDS011;146;53.448;10.228;2022-10-17T14:02:01;5.30;;;4.93;;
317;SDS011;146;53.448;10.228;2022-10-17T14:04:30;6.73;;;6.10;;
317;SDS011;146;53.448;10.228;2022-10-17T14:06:56;7.20;;;6.50;;
317;SDS011;146;53.448;10.228;2022-10-17T14:09:23;10.70;;;7.40;;
317;SDS011;146;53.448;10.228;2022-10-17T14:11:58;8.47;;;7.77;;
317;SDS011;146;53.448;10.228;2022-10-17T14:14:29;8.07;;;7.27;;
317;SDS011;146;53.448;10.228;2022-10-17T14:16:56;8.17;;;7.37;;
317;SDS011;146;53.448;10.228;2022-10-17T14:19:23;10.73;;;8.37;;
317;SDS011;146;53.448;10.228;2022-10-17T14:21:52;8.03;;;7.33;;
317;SDS011;146;53.448;10.228;2022-10-17T14:24:26;8.87;;;7.40;;
317;SDS011;146;53.448;10.228;2022-10-17T14:26:56;8.83;;;8.03;;
317;SDS011;146;53.448;10.228;2022-10-17T14:29:25;8.00;;;7.30;;
317;SDS011;146;53.448;10.228;2022-10-17T14:31:58;7.57;;;6.97;;
317;SDS011;146;53.448;10.228;2022-10-17T14:34:30;8.10;;;7.40;;
317;SDS011;146;53.448;10.228;2022-10-17T14:36:59;7.80;;;7.00;;
317;SDS011;146;53.448;10.228;2022-10-17T14:39:26;9.77;;;8.13;;
317;SDS011;146;53.448;10.228;2022-10-17T14:41:54;7.53;;;6.93;;
317;SDS011;146;53.448;10.228;2022-10-17T14:50:24;10.00;;;9.20;;
317;SDS011;146;53.448;10.228;2022-10-17T14:52:59;9.53;;;8.63;;
317;SDS011;146;53.448;10.228;2022-10-17T14:55:28;8.20;;;7.07;;
317;SDS011;146;53.448;10.228;2022-10-17T14:57:56;9.37;;;8.57;;
317;SDS011;146;53.448;10.228;2022-10-17T15:00:23;8.77;;;7.97;;
317;SDS011;146;53.448;10.228;2022-10-17T15:02:51;8.87;;;8.07;;
317;SDS011;146;53.448;10.228;2022-10-17T15:05:18;9.83;;;8.70;;
317;SDS011;146;53.448;10.228;2022-10-17T15:07:48;9.30;;;8.50;;
317;SDS011;146;53.448;10.228;2022-10-17T15:10:26;9.07;;;8.17;;
317;SDS011;146;53.448;10.228;2022-10-17T15:12:57;8.53;;;7.83;;
317;SDS011;146;53.448;10.228;2022-10-17T15:15:25;8.43;;;7.73;;
317;SDS011;146;53.448;10.228;2022-10-17T15:17:52;8.80;;;8.00;;
317;SDS011;146;53.448;10.228;2022-10-17T15:20:19;8.60;;;7.90;;
317;SDS011;146;53.448;10.228;2022-10-17T15:22:51;7.90;;;7.20;;
317;SDS011;146;53.448;10.228;2022-10-17T15:25:18;7.87;;;7.23;;
317;SDS011;146;53.448;10.228;2022-10-17T15:27:45;8.10;;;7.40;;
317;SDS011;146;53.448;10.228;2022-10-17T15:30:15;8.90;;;8.00;;
317;SDS011;146;53.448;10.228;2022-10-17T15:32:45;8.70;;;7.90;;
317;SDS011;146;53.448;10.228;2022-10-17T15:35:12;9.33;;;8.43;;
317;SDS011;146;53.448;10.228;2022-10-17T15:37:39;8.00;;;7.30;;
317;SDS011;146;53.448;10.228;2022-10-17T15:40:09;10.90;;;8.70;;
317;SDS011;146;53.448;10.228;2022-10-17T15:42:40;8.63;;;7.83;;
317;SDS011;146;53.448;10.228;2022-10-17T15:45:08;9.87;;;9.00;;
317;SDS011;146;53.448;10.228;2022-10-17T15:47:35;9.67;;;8.30;;
317;SDS011;146;53.448;10.228;2022-10-17T15:50:02;9.83;;;8.83;;
317;SDS011;146;53.448;10.228;2022-10-17T15:52:32;9.33;;;8.47;;
317;SDS011;146;53.448;10.228;2022-10-17T15:54:59;10.00;;;9.20;;
317;SDS011;146;53.448;10.228;2022-10-17T15:57:30;9.40;;;8.60;;
317;SDS011;146;53.448;10.228;2022-10-17T16:00:03;13.57;;;9.47;;
317;SDS011;146;53.448;10.228;2022-10-17T16:02:30;11.07;;;10.07;;
317;SDS011;146;53.448;10.228;2022-10-17T16:04:58;9.83;;;9.03;;
317;SDS011;146;53.448;10.228;2022-10-17T16:07:25;11.73;;;10.67;;
317;SDS011;146;53.448;10.228;2022-10-17T16:09:51;10.53;;;9.20;;
317;SDS011;146;53.448;10.228;2022-10-17T16:12:20;9.70;;;8.90;;
317;SDS011;146;53.448;10.228;2022-10-17T16:14:52;11.27;;;10.27;;
317;SDS011;146;53.448;10.228;2022-10-17T16:17:19;12.27;;;11.13;;